Terminal Aerodrome Forecast
Issued by NWS La Crosse, WI

Home | Current Version | Previous Version | Text Only | Print | Product List | Glossary On
Versions: 1 2 3 4 5 6 7 8 9 10 11 12 13 14 15 16 17 18 19 20 21 22 23
000
FTUS43 KARX 062330
TAFLSE
TAF
KLSE 062330Z 0700/0724 24009KT P6SM SCT120
     FM070200 23008KT P6SM VCSH SCT120
     FM070700 33008KT P6SM BKN120
     FM071600 35011KT P6SM SCT100=

USA.gov is the U.S. government's official web portal to all federal, state and local government web resources and services.